createdAt,value
2019-03-21T00:01:14.407Z,15.95
2019-03-21T00:03:42.912Z,18.85
2019-03-21T00:06:13.012Z,18.17
2019-03-21T00:08:41.451Z,21.68
2019-03-21T00:11:11.691Z,17.30
2019-03-21T00:13:40.178Z,15.48
2019-03-21T00:16:10.148Z,17.42
2019-03-21T00:18:38.646Z,21.45
2019-03-21T00:21:07.966Z,20.52
2019-03-21T00:23:37.628Z,16.00
2019-03-21T00:26:06.214Z,15.80
2019-03-21T00:28:34.670Z,16.52
2019-03-21T00:31:03.432Z,16.52
2019-03-21T00:33:31.930Z,18.00
2019-03-21T00:36:00.428Z,16.42
2019-03-21T00:38:28.856Z,28.57
2019-03-21T00:40:57.369Z,15.75
2019-03-21T00:43:25.793Z,18.07
2019-03-21T00:45:54.233Z,17.35
2019-03-21T00:48:22.666Z,16.05
2019-03-21T00:50:51.097Z,29.63
2019-03-21T00:53:19.536Z,19.82
2019-03-21T00:55:51.693Z,18.32
2019-03-21T00:58:20.135Z,19.07
2019-03-21T01:00:50.117Z,16.50
2019-03-21T01:03:18.550Z,19.82
2019-03-21T01:05:46.980Z,19.65
2019-03-21T01:08:15.413Z,16.40
2019-03-21T01:10:43.858Z,25.68
2019-03-21T01:13:12.348Z,20.37
2019-03-21T01:15:40.788Z,26.73
2019-03-21T01:18:09.216Z,28.52
2019-03-21T01:20:37.657Z,23.75
2019-03-21T01:23:06.081Z,20.32
2019-03-21T01:25:39.258Z,27.02
2019-03-21T01:28:07.690Z,21.45
2019-03-21T01:30:36.125Z,21.68
2019-03-21T01:33:04.572Z,20.95
2019-03-21T01:35:33.002Z,27.05
2019-03-21T01:38:01.433Z,18.60
2019-03-21T01:40:31.740Z,33.15
2019-03-21T01:43:00.181Z,37.00
2019-03-21T01:45:28.620Z,29.02
2019-03-21T01:47:57.049Z,31.07
2019-03-21T01:50:29.700Z,24.18
2019-03-21T01:52:58.125Z,17.25
2019-03-21T01:55:26.559Z,18.45
2019-03-21T01:57:55.011Z,19.40
2019-03-21T02:00:28.257Z,16.48
2019-03-21T02:02:57.764Z,28.95
2019-03-21T02:05:26.277Z,19.67
2019-03-21T02:07:54.719Z,19.75
2019-03-21T02:10:23.144Z,16.10
2019-03-21T02:12:51.576Z,18.87
2019-03-21T02:15:20.013Z,18.92
2019-03-21T02:17:49.304Z,29.57
2019-03-21T02:20:18.608Z,18.87
2019-03-21T02:22:47.057Z,17.23
2019-03-21T02:25:17.020Z,32.48
2019-03-21T02:27:45.462Z,37.60
2019-03-21T02:30:18.341Z,38.25
2019-03-21T02:32:47.555Z,27.87
2019-03-21T02:35:15.994Z,21.05
2019-03-21T02:37:44.425Z,27.85
2019-03-21T02:40:14.548Z,24.10
2019-03-21T02:42:42.973Z,34.03
2019-03-21T02:45:13.146Z,24.67
2019-03-21T02:47:41.718Z,29.82
2019-03-21T02:50:17.800Z,29.63
2019-03-21T02:52:46.244Z,35.75
2019-03-21T02:55:14.676Z,27.13
2019-03-21T02:57:43.109Z,21.62
2019-03-21T03:00:18.790Z,28.52
2019-03-21T03:02:47.235Z,33.28
2019-03-21T03:05:17.202Z,35.33
2019-03-21T03:07:45.642Z,41.45
2019-03-21T03:10:15.613Z,34.48
2019-03-21T03:12:44.071Z,26.25
2019-03-21T03:15:22.815Z,42.62
2019-03-21T03:17:44.541Z,39.15
2019-03-21T03:20:14.504Z,34.85
2019-03-21T03:22:43.089Z,23.40
2019-03-21T03:25:13.004Z,35.17
2019-03-21T03:27:41.934Z,33.98
2019-03-21T03:30:17.716Z,44.27
2019-03-21T03:32:46.151Z,33.23
2019-03-21T03:35:17.293Z,38.42
2019-03-21T03:37:45.792Z,30.50
2019-03-21T03:40:21.498Z,32.42
2019-03-21T03:42:49.946Z,37.93
2019-03-21T03:52:34.863Z,29.85
2019-03-21T03:55:03.665Z,47.67
2019-03-21T03:57:32.174Z,62.50
2019-03-21T04:00:00.705Z,60.28
2019-03-21T04:02:29.229Z,50.00
2019-03-21T04:04:57.743Z,55.92
2019-03-21T04:07:26.178Z,57.98
2019-03-21T04:09:54.627Z,38.20
2019-03-21T04:12:23.120Z,43.87
2019-03-21T04:14:51.556Z,45.80
2019-03-21T04:17:19.984Z,57.13
2019-03-21T04:19:48.428Z,60.15
2019-03-21T04:22:16.857Z,61.48
2019-03-21T04:24:45.365Z,41.50
2019-03-21T04:27:13.788Z,51.58
2019-03-21T04:29:42.238Z,48.45
2019-03-21T04:32:10.676Z,52.88
2019-03-21T04:34:39.148Z,36.70
2019-03-21T04:37:07.619Z,57.05
2019-03-21T04:39:36.059Z,50.17
2019-03-21T04:42:04.491Z,35.48
2019-03-21T04:44:32.937Z,34.85
2019-03-21T04:47:01.362Z,45.67
2019-03-21T04:49:29.800Z,54.95
2019-03-21T04:51:58.240Z,52.75
2019-03-21T04:54:26.691Z,47.50
2019-03-21T04:56:55.133Z,33.90
2019-03-21T04:59:23.576Z,31.48
2019-03-21T05:01:52.014Z,54.27
2019-03-21T05:04:20.455Z,52.27
2019-03-21T05:06:48.898Z,63.70
2019-03-21T05:09:17.717Z,64.58
2019-03-21T05:11:46.151Z,62.40
2019-03-21T05:14:15.865Z,53.95
2019-03-21T05:16:45.480Z,53.17
2019-03-21T05:19:13.927Z,37.55
2019-03-21T05:21:42.368Z,33.02
2019-03-21T05:24:10.817Z,64.30
2019-03-21T05:26:39.253Z,41.05
2019-03-21T05:29:07.684Z,34.10
2019-03-21T05:31:37.200Z,34.70
2019-03-21T05:34:05.653Z,34.48
2019-03-21T05:36:34.138Z,53.45
2019-03-21T05:39:03.240Z,62.62
2019-03-21T05:41:31.676Z,45.25
2019-03-21T05:44:01.640Z,61.40
2019-03-21T05:46:31.046Z,59.48
2019-03-21T05:48:59.472Z,43.58
2019-03-21T05:51:27.909Z,43.95
2019-03-21T05:54:00.773Z,59.10
2019-03-21T05:56:30.893Z,61.05
2019-03-21T05:59:04.433Z,32.35
2019-03-21T06:01:34.473Z,53.70
2019-03-21T06:04:07.327Z,52.58
2019-03-21T06:06:38.955Z,46.33
2019-03-21T06:09:08.929Z,62.00
2019-03-21T06:11:39.675Z,63.25
2019-03-21T06:14:08.072Z,61.60
2019-03-21T06:16:37.742Z,58.23
2019-03-21T06:19:09.870Z,54.63
2019-03-21T06:21:40.907Z,39.23
2019-03-21T06:24:16.709Z,36.83
2019-03-21T06:26:50.471Z,58.10
2019-03-21T06:29:19.221Z,43.85
2019-03-21T06:31:48.730Z,51.15
2019-03-21T06:34:17.252Z,53.20
2019-03-21T06:36:45.690Z,46.02
2019-03-21T06:39:14.133Z,41.85
2019-03-21T06:41:42.567Z,46.45
2019-03-21T06:44:11.013Z,63.00
2019-03-21T06:46:48.893Z,41.53
2019-03-21T06:49:09.589Z,45.10
2019-03-21T06:51:38.029Z,42.75
2019-03-21T06:54:06.486Z,54.25
2019-03-21T06:56:34.914Z,48.70
2019-03-21T06:59:03.363Z,56.00
2019-03-21T07:01:31.784Z,61.50
2019-03-21T07:04:07.024Z,56.77
2019-03-21T07:06:30.374Z,71.75
2019-03-21T07:08:58.805Z,50.60
2019-03-21T07:11:27.494Z,54.83
2019-03-21T07:13:55.932Z,65.20
2019-03-21T07:16:24.375Z,55.78
2019-03-21T07:18:52.805Z,51.65
2019-03-21T07:21:21.250Z,59.77
2019-03-21T07:23:50.750Z,61.90
2019-03-21T07:26:19.195Z,77.65
2019-03-21T07:28:47.882Z,70.10
2019-03-21T07:31:16.320Z,60.55
2019-03-21T07:33:44.754Z,60.25
2019-03-21T07:36:13.191Z,63.73
2019-03-21T07:38:41.633Z,71.15
2019-03-21T07:41:10.069Z,66.70
2019-03-21T07:43:38.508Z,65.57
2019-03-21T07:46:06.956Z,73.95
2019-03-21T07:48:36.735Z,66.97
2019-03-21T07:51:05.180Z,81.80
2019-03-21T07:53:33.626Z,71.85
2019-03-21T07:56:02.059Z,88.33
2019-03-21T07:58:30.502Z,64.77
2019-03-21T08:00:58.999Z,77.82
2019-03-21T08:03:27.529Z,70.52
2019-03-21T08:05:55.967Z,86.25
2019-03-21T08:08:24.412Z,76.07
2019-03-21T08:10:52.851Z,80.17
2019-03-21T08:13:21.297Z,72.53
2019-03-21T08:15:53.414Z,82.53
2019-03-21T08:18:21.850Z,81.03
2019-03-21T08:20:56.471Z,85.42
2019-03-21T08:23:20.491Z,93.65
2019-03-21T08:25:48.931Z,96.55
2019-03-21T08:28:17.372Z,79.32
2019-03-21T08:30:47.348Z,86.92
2019-03-21T08:33:15.852Z,108.10
2019-03-21T08:35:44.285Z,93.58
2019-03-21T08:38:12.743Z,123.72
2019-03-21T08:40:42.604Z,138.88
2019-03-21T08:43:11.504Z,121.82
2019-03-21T08:45:39.937Z,105.45
2019-03-21T08:48:08.384Z,106.80
2019-03-21T08:50:36.846Z,102.80
2019-03-21T08:53:05.271Z,111.92
2019-03-21T08:55:35.258Z,118.45
2019-03-21T08:58:04.068Z,108.75
2019-03-21T09:00:34.675Z,105.27
2019-03-21T09:03:03.483Z,118.82
2019-03-21T09:05:31.929Z,89.45
2019-03-21T09:08:00.365Z,100.02
2019-03-21T09:10:28.808Z,83.10
2019-03-21T09:12:57.237Z,97.55
2019-03-21T09:15:25.681Z,98.30
2019-03-21T09:17:55.461Z,104.10
2019-03-21T09:20:24.239Z,93.27
2019-03-21T09:22:52.669Z,82.17
2019-03-21T09:25:21.118Z,88.47
2019-03-21T09:27:49.634Z,79.82
2019-03-21T09:30:18.289Z,84.77
2019-03-21T09:32:46.730Z,78.83
2019-03-21T09:35:15.179Z,80.07
2019-03-21T09:37:43.621Z,72.03
2019-03-21T09:40:12.114Z,76.80
2019-03-21T09:42:40.554Z,71.05
2019-03-21T09:45:09.052Z,70.10
2019-03-21T09:47:37.511Z,65.15
2019-03-21T09:50:06.808Z,75.03
2019-03-21T09:52:35.236Z,71.67
2019-03-21T09:55:05.210Z,64.30
2019-03-21T09:57:34.797Z,64.77
2019-03-21T10:00:04.763Z,63.92
2019-03-21T10:02:33.206Z,63.00
2019-03-21T10:05:01.648Z,68.47
2019-03-21T10:07:30.083Z,57.78
2019-03-21T10:09:58.521Z,59.90
2019-03-21T10:12:26.953Z,56.05
2019-03-21T10:14:55.397Z,56.15
2019-03-21T10:17:23.838Z,58.05
2019-03-21T10:19:52.281Z,55.40
2019-03-21T10:22:20.721Z,53.15
2019-03-21T10:24:49.164Z,58.23
2019-03-21T10:27:17.610Z,52.33
2019-03-21T10:29:46.036Z,54.27
2019-03-21T10:32:14.840Z,53.48
2019-03-21T10:34:44.757Z,51.88
2019-03-21T10:37:13.180Z,55.03
2019-03-21T10:39:41.630Z,53.33
2019-03-21T10:42:10.098Z,50.43
2019-03-21T10:44:38.614Z,52.17
2019-03-21T10:47:07.044Z,51.95
2019-03-21T10:49:35.484Z,50.58
2019-03-21T10:52:03.928Z,51.05
2019-03-21T10:54:32.361Z,51.25
2019-03-21T10:57:00.804Z,49.40
2019-03-21T10:59:29.294Z,49.20
2019-03-21T11:02:06.829Z,49.48
2019-03-21T11:04:27.885Z,48.63
2019-03-21T11:07:02.044Z,51.13
2019-03-21T11:09:30.549Z,57.17
2019-03-21T11:11:58.989Z,52.25
2019-03-21T11:14:28.185Z,50.80
2019-03-21T11:16:57.169Z,58.20
2019-03-21T11:19:25.621Z,55.43
2019-03-21T11:21:54.078Z,58.75
2019-03-21T11:24:24.196Z,54.77
2019-03-21T11:26:52.898Z,54.73
2019-03-21T11:29:21.336Z,56.23
2019-03-21T11:31:49.782Z,65.00
2019-03-21T11:34:18.235Z,56.63
2019-03-21T11:36:46.678Z,53.48
2019-03-21T11:39:15.433Z,58.08
2019-03-21T11:41:43.882Z,51.13
2019-03-21T11:44:12.325Z,60.88
2019-03-21T11:46:40.780Z,64.15
2019-03-21T11:49:09.214Z,57.27
2019-03-21T11:51:37.657Z,60.50
2019-03-21T11:54:06.097Z,60.30
2019-03-21T11:56:34.652Z,61.58
2019-03-21T11:59:03.156Z,57.58
2019-03-21T12:01:31.587Z,60.58
2019-03-21T12:04:00.104Z,61.75
2019-03-21T12:06:28.543Z,67.05
2019-03-21T12:08:56.977Z,56.53
2019-03-21T12:11:25.421Z,54.93
2019-03-21T12:13:53.857Z,58.52
2019-03-21T12:16:22.302Z,62.40
2019-03-21T12:18:50.740Z,62.65
2019-03-21T12:21:20.346Z,65.28
2019-03-21T12:23:48.784Z,62.08
2019-03-21T12:26:17.222Z,59.98
2019-03-21T12:28:45.656Z,59.00
2019-03-21T12:31:14.092Z,58.50
2019-03-21T12:33:42.539Z,58.17
2019-03-21T12:36:10.973Z,55.73
2019-03-21T12:38:39.482Z,54.75
2019-03-21T12:41:07.925Z,55.48
2019-03-21T12:43:36.378Z,58.60
2019-03-21T12:46:04.825Z,59.13
2019-03-21T12:48:33.272Z,56.02
2019-03-21T12:51:03.009Z,63.35
2019-03-21T12:53:31.436Z,52.43
2019-03-21T12:55:59.877Z,49.67
2019-03-21T12:58:28.301Z,49.23
2019-03-21T13:00:56.749Z,49.58
2019-03-21T13:03:25.183Z,47.53
2019-03-21T13:05:53.640Z,50.20
2019-03-21T13:08:33.138Z,49.80
2019-03-21T13:10:52.207Z,43.25
2019-03-21T13:13:20.648Z,46.55
2019-03-21T13:15:49.094Z,38.58
2019-03-21T13:18:17.537Z,43.83
2019-03-21T13:20:45.971Z,44.75
2019-03-21T13:23:14.412Z,41.33
2019-03-21T13:25:43.102Z,45.55
2019-03-21T13:28:11.545Z,40.78
2019-03-21T13:30:39.986Z,40.67
2019-03-21T13:33:08.432Z,43.17
2019-03-21T13:35:36.865Z,37.83
2019-03-21T13:38:05.393Z,36.65
2019-03-21T13:40:33.813Z,41.75
2019-03-21T13:43:02.921Z,41.05
2019-03-21T13:45:31.356Z,35.73
2019-03-21T13:47:59.797Z,39.25
2019-03-21T13:50:28.300Z,38.35
2019-03-21T13:53:04.708Z,36.98
2019-03-21T13:55:28.584Z,41.05
2019-03-21T13:57:57.026Z,38.80
2019-03-21T14:00:25.465Z,37.05
2019-03-21T14:02:53.897Z,38.28
2019-03-21T14:05:22.350Z,40.98
2019-03-21T14:07:50.788Z,34.75
2019-03-21T14:10:19.235Z,30.30
2019-03-21T14:12:47.665Z,38.28
2019-03-21T14:15:16.987Z,34.20
2019-03-21T14:17:45.418Z,31.12
2019-03-21T14:20:14.633Z,31.15
2019-03-21T14:22:43.160Z,29.50
2019-03-21T14:25:11.602Z,32.45
2019-03-21T14:30:14.864Z,28.02
2019-03-21T14:32:43.300Z,33.50
2019-03-21T14:35:12.210Z,29.95
2019-03-21T14:37:40.649Z,31.60
2019-03-21T14:40:10.540Z,35.30
2019-03-21T14:42:39.342Z,34.00
2019-03-21T14:45:08.894Z,28.20
2019-03-21T14:47:37.325Z,31.20
2019-03-21T14:50:07.131Z,31.40
2019-03-21T14:52:38.484Z,30.75
2019-03-21T14:55:08.832Z,32.98
2019-03-21T14:57:37.261Z,31.57
2019-03-21T15:00:07.241Z,34.88
2019-03-21T15:02:35.741Z,35.80
2019-03-21T15:05:05.964Z,32.67
2019-03-21T15:07:34.631Z,32.38
2019-03-21T15:10:04.636Z,31.00
2019-03-21T15:12:33.070Z,33.55
2019-03-21T15:15:01.523Z,36.58
2019-03-21T15:17:30.389Z,34.88
2019-03-21T15:19:58.824Z,34.95
2019-03-21T15:22:27.256Z,33.48
2019-03-21T15:24:55.768Z,30.05
2019-03-21T15:27:24.208Z,33.78
2019-03-21T15:29:52.927Z,37.33
2019-03-21T15:32:21.492Z,33.85
2019-03-21T15:34:49.929Z,35.35
2019-03-21T15:37:19.762Z,31.42
2019-03-21T15:39:48.378Z,33.90
2019-03-21T15:42:16.815Z,38.65
2019-03-21T15:44:45.249Z,35.17
2019-03-21T15:47:13.690Z,32.73
2019-03-21T15:49:42.128Z,39.73
2019-03-21T15:52:10.554Z,37.88
2019-03-21T15:54:38.993Z,33.28
2019-03-21T15:57:07.420Z,31.00
2019-03-21T15:59:36.210Z,36.38
2019-03-21T16:02:04.634Z,36.38
2019-03-21T16:04:33.085Z,45.17
2019-03-21T16:07:01.513Z,38.17
2019-03-21T16:09:29.957Z,38.78
2019-03-21T16:11:58.402Z,38.53
2019-03-21T16:14:26.848Z,36.28
2019-03-21T16:16:55.297Z,36.88
2019-03-21T16:19:23.731Z,38.10
2019-03-21T16:21:52.202Z,44.93
2019-03-21T16:24:20.626Z,34.15
2019-03-21T16:26:49.074Z,38.53
2019-03-21T16:29:17.509Z,41.90
2019-03-21T16:31:45.951Z,44.60
2019-03-21T16:34:14.408Z,39.60
2019-03-21T16:36:42.849Z,41.73
2019-03-21T16:39:11.769Z,41.65
2019-03-21T16:41:40.209Z,42.27
2019-03-21T16:44:08.648Z,39.23
2019-03-21T16:46:37.144Z,39.53
2019-03-21T16:49:05.578Z,37.40
2019-03-21T16:51:34.017Z,40.00
2019-03-21T16:54:02.525Z,39.42
2019-03-21T16:56:30.965Z,40.17
2019-03-21T16:58:59.409Z,40.20
2019-03-21T17:01:29.008Z,37.35
2019-03-21T17:03:57.507Z,34.50
2019-03-21T17:06:25.991Z,38.85
2019-03-21T17:08:54.550Z,39.25
2019-03-21T17:11:23.019Z,34.88
2019-03-21T17:13:52.217Z,35.33
2019-03-21T17:16:20.887Z,37.67
2019-03-21T17:18:49.341Z,41.05
2019-03-21T17:21:20.591Z,34.92
2019-03-21T17:23:49.338Z,37.28
2019-03-21T17:26:17.767Z,35.80
2019-03-21T17:28:46.270Z,38.95
2019-03-21T17:31:14.717Z,36.80
2019-03-21T17:33:43.161Z,38.23
2019-03-21T17:36:11.614Z,33.10
2019-03-21T17:38:40.064Z,38.45
2019-03-21T17:41:08.502Z,33.88
2019-03-21T17:43:36.936Z,35.30
2019-03-21T17:46:05.391Z,41.08
2019-03-21T17:48:33.820Z,39.08
2019-03-21T17:51:02.458Z,33.70
2019-03-21T17:53:30.885Z,36.68
2019-03-21T17:55:59.333Z,40.25
2019-03-21T17:58:28.826Z,33.88
2019-03-21T18:00:58.541Z,35.05
2019-03-21T18:03:27.345Z,43.80
2019-03-21T18:05:55.797Z,40.67
2019-03-21T18:08:24.239Z,34.25
2019-03-21T18:10:52.682Z,37.70
2019-03-21T18:13:21.117Z,36.58
2019-03-21T18:15:49.553Z,35.13
2019-03-21T18:18:17.993Z,36.13
2019-03-21T18:20:46.442Z,37.17
2019-03-21T18:23:14.945Z,33.02
2019-03-21T18:25:43.411Z,35.08
2019-03-21T18:28:11.853Z,37.23
2019-03-21T18:30:40.473Z,42.20
2019-03-21T18:33:08.927Z,36.85
2019-03-21T18:35:37.429Z,40.38
2019-03-21T18:38:06.012Z,37.55
2019-03-21T18:40:34.937Z,43.23
2019-03-21T18:43:03.365Z,38.58
2019-03-21T18:45:31.809Z,37.30
2019-03-21T18:48:00.308Z,37.90
2019-03-21T18:50:28.758Z,39.15
2019-03-21T18:52:57.201Z,36.53
2019-03-21T18:55:25.649Z,37.42
2019-03-21T18:57:54.173Z,34.38
2019-03-21T19:00:22.688Z,41.48
2019-03-21T19:02:51.206Z,36.23
2019-03-21T19:05:19.919Z,39.85
2019-03-21T19:07:48.352Z,43.10
2019-03-21T19:10:16.811Z,40.12
2019-03-21T19:12:45.374Z,41.92
2019-03-21T19:15:14.573Z,39.80
2019-03-21T19:17:43.006Z,39.65
2019-03-21T19:20:12.527Z,37.48
2019-03-21T19:22:40.975Z,39.55
2019-03-21T19:25:18.602Z,36.10
2019-03-21T19:27:40.797Z,39.25
2019-03-21T19:30:10.784Z,41.90
2019-03-21T19:32:39.234Z,38.85
2019-03-21T19:35:08.036Z,33.78
2019-03-21T19:37:36.508Z,39.48
2019-03-21T19:40:06.429Z,43.02
2019-03-21T19:42:35.143Z,39.25
2019-03-21T19:45:05.283Z,46.83
2019-03-21T19:47:33.800Z,39.15
2019-03-21T19:50:04.779Z,41.28
2019-03-21T19:52:33.283Z,42.15
2019-03-21T19:55:01.724Z,42.25
2019-03-21T19:57:30.216Z,40.83
2019-03-21T19:59:58.668Z,43.55
2019-03-21T20:02:27.096Z,44.42
2019-03-21T20:04:55.729Z,37.78
2019-03-21T20:07:24.419Z,42.78
2019-03-21T20:09:52.929Z,41.92
2019-03-21T20:12:21.630Z,39.18
2019-03-21T20:14:50.083Z,38.80
2019-03-21T20:17:18.564Z,43.28
2019-03-21T20:19:47.072Z,42.50
2019-03-21T20:22:15.625Z,39.30
2019-03-21T20:24:44.268Z,43.10
2019-03-21T20:27:12.964Z,41.10
2019-03-21T20:29:41.461Z,41.83
2019-03-21T20:32:20.139Z,42.25
2019-03-21T20:34:40.052Z,46.37
2019-03-21T20:37:08.489Z,42.88
2019-03-21T20:39:36.993Z,42.17
2019-03-21T20:42:05.433Z,44.80
2019-03-21T20:44:34.254Z,43.08
2019-03-21T20:47:02.688Z,44.75
2019-03-21T20:49:31.148Z,44.13
2019-03-21T20:51:59.821Z,43.75
2019-03-21T20:54:28.271Z,43.98
2019-03-21T20:56:56.713Z,45.80
2019-03-21T20:59:25.148Z,41.77
2019-03-21T21:02:02.321Z,44.55
2019-03-21T21:04:23.734Z,46.45
2019-03-21T21:06:52.162Z,46.45
2019-03-21T21:09:20.878Z,47.50
2019-03-21T21:11:49.380Z,39.35
2019-03-21T21:14:17.893Z,47.90
2019-03-21T21:16:46.365Z,45.75
2019-03-21T21:19:14.846Z,47.48
2019-03-21T21:21:43.315Z,47.85
2019-03-21T21:24:11.736Z,41.95
2019-03-21T21:26:40.187Z,50.98
2019-03-21T21:29:08.621Z,47.53
2019-03-21T21:31:37.064Z,46.75
2019-03-21T21:34:05.684Z,44.60
2019-03-21T21:36:34.121Z,44.50
2019-03-21T21:39:02.561Z,52.30
2019-03-21T21:41:31.689Z,42.33
2019-03-21T21:44:00.154Z,45.67
2019-03-21T21:46:28.621Z,42.60
2019-03-21T21:48:58.026Z,42.40
2019-03-21T21:51:26.457Z,44.60
2019-03-21T21:53:56.068Z,46.53
2019-03-21T21:56:24.501Z,43.95
2019-03-21T21:58:52.941Z,47.30
2019-03-21T22:01:21.441Z,46.08
2019-03-21T22:03:49.877Z,45.58
2019-03-21T22:06:19.493Z,48.20
2019-03-21T22:08:47.921Z,44.20
2019-03-21T22:11:16.500Z,43.25
2019-03-21T22:13:44.946Z,46.33
2019-03-21T22:16:13.393Z,48.85
2019-03-21T22:18:41.978Z,40.48
2019-03-21T22:21:10.414Z,45.92
2019-03-21T22:23:38.873Z,40.95
2019-03-21T22:26:08.286Z,41.02
2019-03-21T22:28:36.735Z,43.85
2019-03-21T22:31:05.178Z,45.28
2019-03-21T22:33:33.620Z,45.50
2019-03-21T22:36:02.201Z,43.05
2019-03-21T22:38:30.649Z,42.48
2019-03-21T22:40:59.088Z,44.15
2019-03-21T22:43:27.533Z,45.85
2019-03-21T22:45:57.160Z,45.08
2019-03-21T22:48:25.600Z,43.52
2019-03-21T22:50:54.043Z,45.92
2019-03-21T22:53:23.900Z,41.05
2019-03-21T22:55:52.518Z,41.85
2019-03-21T22:58:31.360Z,44.98
2019-03-21T23:00:51.724Z,42.70
2019-03-21T23:03:20.745Z,40.95
2019-03-21T23:05:49.184Z,43.15
2019-03-21T23:08:17.612Z,42.45
2019-03-21T23:10:46.069Z,45.03
2019-03-21T23:13:14.501Z,42.67
2019-03-21T23:15:42.943Z,45.08
2019-03-21T23:18:12.390Z,42.40
2019-03-21T23:20:41.525Z,43.90
2019-03-21T23:23:09.961Z,41.73
2019-03-21T23:25:38.406Z,42.23
2019-03-21T23:28:06.836Z,44.13
2019-03-21T23:30:35.276Z,39.80
2019-03-21T23:33:03.718Z,40.78
2019-03-21T23:35:32.160Z,38.23
2019-03-21T23:38:00.588Z,47.80
2019-03-21T23:40:29.046Z,39.40
2019-03-21T23:42:57.483Z,44.03
2019-03-21T23:45:25.932Z,37.30
2019-03-21T23:47:54.374Z,37.65
2019-03-21T23:50:22.804Z,38.60
2019-03-21T23:52:51.249Z,39.08
2019-03-21T23:55:19.677Z,39.35
2019-03-21T23:57:48.124Z,40.58
